^^
Datos históricos de la estación: Murcia-Puente Tocinos
Diario Informe para Agosto 11, 2019 Unidades:  Ingés    Métrico   Ambas
Diario Semanal Mensual Anual
  Máxima: Mínima: Promedio:
Temperatura: 78.6 °F 66.4 °F 72 °F
Punto de rocio: 65.7 °F 61.5 °F 64 °F
Humedad: 89% 56.4% 77%
Velocidad viento: 9.7mph 0mph 3.5mph
Racha viento: 20mph - -
Viento- - ESE
Presión: 30.1 in 30 in -
Precipitación: 0 in    
 
 
Tabla de datos para Agosto 11, 2019
Hora Temperatura Punto de rocio Presión Viento Velocidad viento Racha viento Humedad Intensidad lluvia(por hora) Nubes
00:04 71.2 °F 64.8 °F 30.1 in NNE 1.4 mph 3 mph 80% 0 in
00:09 71.2 °F 64.8 °F 30.1 in NNE 1.4 mph 3 mph 80% 0 in
00:14 71.2 °F 64.8 °F 30.1 in NNE 1.4 mph 2.4 mph 80% 0 in
00:19 71.1 °F 64.9 °F 30.1 in NNE 1.4 mph 2.4 mph 80.7% 0 in
00:24 71.1 °F 64.9 °F 30.1 in NNE 1.4 mph 2.4 mph 81% 0 in
00:29 71.1 °F 64.9 °F 30.1 in NNE 1.1 mph 2.3 mph 81% 0 in
00:34 71.1 °F 64.9 °F 30.1 in Calm   3.5 mph 81% 0 in
00:39 71.1 °F 64.9 °F 30.1 in NNE 0.3 mph 3 mph 81% 0 in
00:44 70.9 °F 64.8 °F 30.1 in NNE 1.4 mph 2.3 mph 81% 0 in
00:49 70.9 °F 64.8 °F 30.1 in NNE 1.2 mph 2.3 mph 81% 0 in
00:54 70.9 °F 64.8 °F 30.1 in Calm   2 mph 81% 0 in
00:59 70.7 °F 64.8 °F 30.1 in Calm   2.4 mph 81.8% 0 in
01:04 70.5 °F 64.8 °F 30.1 in Calm   2.3 mph 82% 0 in
01:09 70.3 °F 64.8 °F 30.1 in Calm   1 mph 82% 0 in
01:14 70.3 °F 64.6 °F 30.1 in Calm   1.8 mph 82% 0 in
01:19 70.3 °F 64.6 °F 30.1 in Calm   2.3 mph 82% 0 in
01:24 70.2 °F 64.4 °F 30.1 in Calm   1 mph 82% 0 in
01:29 70.2 °F 64.4 °F 30.1 in Calm   2.9 mph 82% 0 in
01:34 70 °F 64.6 °F 30.1 in Calm   3 mph 82.7% 0 in
01:39 70 °F 64.6 °F 30.1 in NNE 0.2 mph 2.3 mph 83% 0 in
01:44 70 °F 64.6 °F 30.1 in NNE 1.4 mph 2 mph 83% 0 in
01:49 70 °F 64.6 °F 30.1 in NE 1.4 mph 4 mph 82.9% 0 in
01:54 70 °F 64.2 °F 30.1 in ESE 1.4 mph 5 mph 82.2% 0 in
01:59 70 °F 64.6 °F 30.1 in ESE 1.4 mph 5 mph 83% 0 in
02:04 69.8 °F 64.4 °F 30.1 in ESE 1.4 mph 2 mph 83% 0 in
02:09 69.8 °F 64.4 °F 30.1 in ESE 1.1 mph 1.4 mph 83% 0 in
02:14 69.8 °F 64.4 °F 30.1 in Calm   1.4 mph 83% 0 in
02:19 69.6 °F 64.2 °F 30.1 in Calm   1.4 mph 83% 0 in
02:24 69.6 °F 64.2 °F 30.1 in Calm   3.6 mph 83% 0 in
02:29 69.6 °F 64.2 °F 30.1 in ESE 0.4 mph 4 mph 83% 0 in
02:34 69.6 °F 64.2 °F 30.1 in ESE 2 mph 4 mph 83% 0 in
02:39 69.4 °F 64 °F 30.1 in ESE 1.9 mph 3 mph 83% 0 in
02:44 69.4 °F 64 °F 30.1 in ESE 1.4 mph 2.4 mph 83% 0 in
02:49 69.4 °F 64 °F 30.1 in ESE 1.1 mph 2.3 mph 83% 0 in
02:54 69.3 °F 63.9 °F 30.1 in Calm   2.3 mph 83% 0 in
02:59 69.3 °F 63.9 °F 30.1 in Calm   2 mph 83% 0 in
03:04 69.1 °F 63.7 °F 30.1 in Calm     83% 0 in
03:09 69.1 °F 63.7 °F 30.1 in Calm   2.9 mph 83% 0 in
03:14 68.9 °F 63.5 °F 30.1 in Calm   3 mph 83% 0 in
03:19 68.7 °F 63.5 °F 30.1 in ESE 0.2 mph 2.4 mph 83.4% 0 in
03:24 68.7 °F 63.7 °F 30.1 in ESE 1.4 mph 2.3 mph 84% 0 in
03:29 68.7 °F 63.7 °F 30.1 in ESE 1.4 mph 3.5 mph 84% 0 in
03:34 68.5 °F 63.5 °F 30.1 in ESE 1.4 mph 3 mph 84% 0 in
03:39 68.5 °F 63.5 °F 30.1 in ESE 1.4 mph 3 mph 84% 0 in
03:44 68.5 °F 63.5 °F 30.1 in ESE 1.4 mph 2.4 mph 84% 0 in
03:49 68.5 °F 63.5 °F 30.1 in ESE 1.1 mph 2.3 mph 84% 0 in
03:54 68.5 °F 63.5 °F 30.1 in Calm   2 mph 84% 0 in
03:59 68.5 °F 63.5 °F 30.1 in Calm   2.3 mph 84% 0 in
04:04 68.5 °F 63.5 °F 30.1 in Calm   2.9 mph 84% 0 in
04:09 68.5 °F 63.5 °F 30.1 in ESE 0.4 mph 3 mph 84% 0 in
04:14 68.4 °F 63.7 °F 30.1 in ESE 1.8 mph 3.5 mph 84.6% 0 in
04:19 68.4 °F 63.7 °F 30.1 in ESE 1.8 mph 3 mph 85% 0 in
04:24 68.4 °F 63.7 °F 30.1 in ESE 1.8 mph 2.9 mph 85% 0 in
04:29 68.4 °F 63.7 °F 30.1 in ESE 1.8 mph 3 mph 85% 0 in
04:34 68.4 °F 63.7 °F 30.1 in SE 1.8 mph 4 mph 85% 0 in
04:39 68.2 °F 63.5 °F 30.1 in SE 1.9 mph 5 mph 85% 0 in
04:44 68.2 °F 63.5 °F 30.1 in SE 2 mph 4 mph 85% 0 in
04:49 68 °F 63.3 °F 30.1 in SE 2 mph 4 mph 85% 0 in
04:54 68 °F 63.7 °F 30.1 in SE 2 mph 4 mph 85.9% 0 in
04:59 67.8 °F 63.5 °F 30.1 in SE 1.9 mph 4 mph 86% 0 in
05:04 67.8 °F 63.5 °F 30.1 in SE 1.8 mph 3 mph 86% 0 in
05:09 67.8 °F 63.5 °F 30.1 in SE 1.7 mph 2.9 mph 86% 0 in
05:14 67.8 °F 63.5 °F 30.1 in SE 1.4 mph 3 mph 86% 0 in
05:19 67.8 °F 63.3 °F 30.1 in SE 1.5 mph 3.6 mph 85.6% 0 in
05:24 67.6 °F 63.1 °F 30.1 in SE 1.8 mph 4 mph 85.6% 0 in
05:29 67.6 °F 63.1 °F 30.1 in SE 1.9 mph 4 mph 86% 0 in
05:34 67.5 °F 63.1 °F 30.1 in SE 2 mph 4.7 mph 86% 0 in
05:39 67.5 °F 63.1 °F 30.1 in SSE 2.1 mph 5 mph 86% 0 in
05:44 67.3 °F 63.3 °F 30.1 in SE 2.4 mph 5 mph 86.9% 0 in
05:49 67.3 °F 63.3 °F 30.1 in SE 2.4 mph 5 mph 87% 0 in
05:54 67.3 °F 63.3 °F 30.1 in SE 2.4 mph 5 mph 87% 0 in
05:59 67.3 °F 63.3 °F 30.1 in SSE 2.4 mph 4.7 mph 87% 0 in
06:04 67.3 °F 63.3 °F 30.1 in SSE 2 mph 5 mph 87% 0 in
06:09 67.3 °F 63.3 °F 30.1 in SSE 2 mph 3.6 mph 87% 0 in
06:14 67.1 °F 63.1 °F 30.1 in SE 1.8 mph 4 mph 87% 0 in
06:19 67.1 °F 63.1 °F 30.1 in SSE 2 mph 5.9 mph 87% 0 in
06:24 67.1 °F 63.1 °F 30.1 in SSE 2.9 mph 6 mph 87% 0 in
06:29 67.1 °F 63.1 °F 30.1 in SSE 2.9 mph 5 mph 87% 0 in
06:34 66.9 °F 63 °F 30.1 in Sur 2.9 mph 5 mph 87% 0 in
06:39 66.9 °F 63.1 °F 30.1 in Sur 2.9 mph 5 mph 87.7% 0 in
06:44 66.9 °F 63.1 °F 30.1 in Sur 2.9 mph 5 mph 88% 0 in
06:49 66.9 °F 63.3 °F 30.1 in Sur 2.7 mph 4 mph 88% 0 in
06:54 67.1 °F 63.3 °F 30.1 in Sur 2 mph 3 mph 88% 0 in
06:59 67.1 °F 63.3 °F 30.1 in Sur 1.9 mph 2.9 mph 87.8% 0 in
07:04 66.9 °F 63 °F 30.1 in Sur 1.4 mph 3.5 mph 87% 0 in
07:09 66.9 °F 63 °F 30.1 in Sur 1.5 mph 3.6 mph 87% 0 in
07:14 66.7 °F 62.8 °F 30.1 in Sur 1.8 mph 4 mph 87% 0 in
07:19 66.7 °F 62.8 °F 30.1 in Sur 1.7 mph 3.5 mph 87% 0 in
07:24 66.7 °F 63 °F 30.1 in Sur 1.4 mph 4 mph 87.9% 0 in
07:29 66.7 °F 63.1 °F 30.1 in SSO 1.5 mph 5 mph 88% 0 in
07:34 66.7 °F 63.1 °F 30.1 in SSO 2 mph 5 mph 88% 0 in
07:39 66.6 °F 63 °F 30.1 in SSO 1.9 mph 3.5 mph 88% 0 in
07:44 66.6 °F 62.8 °F 30.1 in SSO 1.4 mph 3 mph 87.7% 0 in
07:49 66.4 °F 62.8 °F 30.1 in SSO 1.1 mph 2 mph 88% 0 in
07:54 66.4 °F 62.8 °F 30.1 in Calm   3.6 mph 88% 0 in
07:59 66.4 °F 63 °F 30.1 in Sur 0.4 mph 4 mph 89% 0 in
08:04 66.6 °F 63.1 °F 30.1 in SSE 1.8 mph 5.8 mph 89% 0 in
08:09 66.6 °F 63.1 °F 30.1 in SSE 1.9 mph 6 mph 89% 0 in
08:14 66.6 °F 63.1 °F 30.1 in SSO 2.4 mph 5.2 mph 89% 0 in
08:19 66.6 °F 63.1 °F 30.1 in Sur 2.5 mph 5 mph 89% 0 in
08:24 66.6 °F 63.1 °F 30.1 in SSE 3.1 mph 6.2 mph 89% 0 in
08:29 66.6 °F 63.1 °F 30.1 in Sur 3.3 mph 6 mph 89% 0 in
08:34 66.6 °F 63.1 °F 30.1 in SSO 4 mph 6.2 mph 89% 0 in
08:39 66.6 °F 63.1 °F 30.1 in SSO 3.9 mph 6 mph 89% 0 in
08:44 66.6 °F 63.3 °F 30.1 in SO 3.6 mph 6 mph 89% 0 in
08:49 66.7 °F 63.3 °F 30.1 in SSO 3.5 mph 6 mph 89% 0 in
08:54 66.7 °F 63.5 °F 30.1 in SO 3.1 mph 6 mph 89% 0 in
08:59 66.9 °F 63.3 °F 30.1 in SO 3.1 mph 5 mph 88.5% 0 in
09:04 67.1 °F 63.5 °F 30.1 in OSO 3.1 mph 5 mph 88% 0 in
09:09 67.5 °F 63.7 °F 30.1 in SO 3 mph 5 mph 88% 0 in
09:14 67.5 °F 63.5 °F 30.1 in SSO 2.4 mph 5 mph 87.3% 0 in
09:19 67.5 °F 63.5 °F 30.1 in Sur 2.5 mph 5 mph 87% 0 in
09:24 67.6 °F 63.7 °F 30.1 in Sur 2.9 mph 6.2 mph 87% 0 in
09:29 67.8 °F 63.7 °F 30.1 in Sur 3 mph 6 mph 86.5% 0 in
09:34 67.8 °F 63.7 °F 30.1 in Sur 3.6 mph 6 mph 86% 0 in
09:39 68.2 °F 63.9 °F 30.1 in Sur 3.7 mph 6.2 mph 86% 0 in
09:44 68.2 °F 63.5 °F 30.1 in Sur 4 mph 6.9 mph 85.1% 0 in
09:49 68.4 °F 63.7 °F 30.1 in Sur 4 mph 7 mph 85% 0 in
09:54 68.4 °F 63.7 °F 30.1 in SSO 4 mph 6 mph 85% 0 in
09:59 68.5 °F 63.7 °F 30.1 in SSO 4 mph 6.2 mph 84.9% 0 in
10:04 68.5 °F 63.7 °F 30.1 in SSO 4 mph 8.1 mph 84% 0 in
10:09 68.5 °F 63.5 °F 30.1 in SSO 4.3 mph 8.1 mph 84% 0 in
10:14 68.5 °F 63.5 °F 30.1 in SSO 5.4 mph 8.1 mph 84% 0 in
10:19 68.5 °F 63.5 °F 30.1 in SSO 5.3 mph 8 mph 84% 0 in
10:24 68.5 °F 63.5 °F 30.1 in SSO 5.2 mph 8.1 mph 84% 0 in
10:29 68.7 °F 63.7 °F 30.1 in SSO 5.1 mph 8 mph 83.9% 0 in
10:34 69.1 °F 63.9 °F 30.1 in SSO 4.7 mph 7 mph 83.9% 0 in
10:39 69.4 °F 64 °F 30.1 in Sur 4.6 mph 6 mph 82.9% 0 in
10:44 70 °F 64.2 °F 30.1 in SSO 4 mph 6 mph 82% 0 in
10:49 70.3 °F 64.2 °F 30.1 in SSO 3.9 mph 6 mph 80.8% 0 in
10:54 70.9 °F 64 °F 30.1 in OSO 3.1 mph 6 mph 79.4% 0 in
10:59 71.1 °F 64 °F 30.1 in OSO 3 mph 5 mph 78.7% 0 in
11:04 71.2 °F 64 °F 30.1 in Oeste 2.9 mph 5 mph 78% 0 in
11:09 71.2 °F 64 °F 30.1 in ONO 2.7 mph 5 mph 78% 0 in
11:14 72 °F 64.4 °F 30.1 in SO 1.8 mph 5.2 mph 77.2% 0 in
11:19 72.7 °F 64.6 °F 30.1 in SSO 1.8 mph 5 mph 75.5% 0 in
11:24 73.4 °F 64.6 °F 30.1 in Sur 1.8 mph 5.8 mph 73.9% 0 in
11:29 73.6 °F 64.6 °F 30.1 in SSO 2.1 mph 6 mph 73.2% 0 in
11:34 73.6 °F 64.6 °F 30.1 in SSO 3.1 mph 6 mph 73.3% 0 in
11:39 73.9 °F 64.8 °F 30.1 in SSE 3 mph 6 mph 73.2% 0 in
11:44 74.5 °F 64.4 °F 30.1 in ESE 2.4 mph 5.2 mph 71.1% 0 in
11:49 74.5 °F 64.8 °F 30.1 in NNE 2.5 mph 6.9 mph 71.5% 0 in
11:54 74.7 °F 64.8 °F 30.1 in Este 2.9 mph 7 mph 71.4% 0 in
11:59 75 °F 64.9 °F 30.1 in ESE 2.7 mph 6.9 mph 70.8% 0 in
12:04 75.2 °F 64.8 °F 30.1 in NNO 2 mph 7 mph 70.3% 0 in
12:09 75.4 °F 64.8 °F 30.1 in Este 2.2 mph 6.2 mph 70% 0 in
12:14 75.4 °F 64.9 °F 30.1 in NE 3.1 mph 6 mph 70% 0 in
12:19 75.4 °F 64.9 °F 30.1 in NNE 3.1 mph 5.8 mph 70% 0 in
12:24 75.4 °F 65.1 °F 30.1 in NE 3.1 mph 9.2 mph 70.6% 0 in
12:29 75.4 °F 65.1 °F 30.1 in NE 3.4 mph 10.7 mph 70.5% 0 in
12:34 74.8 °F 64.6 °F 30.1 in ENE 4.7 mph 11 mph 70.2% 0 in
12:39 74.7 °F 64.6 °F 30.1 in ENE 4.9 mph 10.7 mph 70.8% 0 in
12:44 74.7 °F 64 °F 30.1 in NE 5.9 mph 11.4 mph 69.4% 0 in
12:49 74.8 °F 63.9 °F 30.1 in NE 6 mph 12 mph 68.9% 0 in
12:54 74.8 °F 64.2 °F 30.1 in NE 6.2 mph 12 mph 69.3% 0 in
12:59 75.2 °F 64.2 °F 30.1 in NE 5.8 mph 10.4 mph 68.9% 0 in
13:04 75.6 °F 64.4 °F 30.1 in NE 4.3 mph 10.4 mph 68.5% 0 in
13:09 75.9 °F 64.8 °F 30.1 in NNE 4.3 mph 9 mph 68.1% 0 in
13:14 76.6 °F 64.8 °F 30.1 in NE 4.3 mph 10.4 mph 66.8% 0 in
13:19 76.6 °F 64.8 °F 30.1 in NE 4.5 mph 11.5 mph 66.7% 0 in
13:24 76.5 °F 64.6 °F 30.1 in NE 5.4 mph 12 mph 66.7% 0 in
13:29 76.3 °F 64.6 °F 30.1 in NNE 5.5 mph 12 mph 67% 0 in
13:34 76.6 °F 64.6 °F 30.1 in North 5.9 mph 9.2 mph 66.3% 0 in
13:39 77 °F 64.4 °F 30.1 in NNE 5.8 mph 11.5 mph 65.1% 0 in
13:44 77.2 °F 64.2 °F 30.1 in NE 5.2 mph 15.2 mph 64.5% 0 in
13:49 76.8 °F 64.2 °F 30.1 in NE 6 mph 15 mph 65% 0 in
13:54 77 °F 64.2 °F 30.1 in NE 9.2 mph 14 mph 64.9% 0 in
13:59 77.4 °F 64.2 °F 30.1 in NNE 8.4 mph 13 mph 64.3% 0 in
14:04 77.9 °F 64.6 °F 30.1 in NE 6.2 mph 16.3 mph 63.7% 0 in
14:09 77.7 °F 64.2 °F 30.1 in NNE 6.8 mph 16.1 mph 63.3% 0 in
14:14 77.5 °F 64.4 °F 30.1 in NE 9.2 mph 16.8 mph 64.4% 0 in
14:19 77.7 °F 64.2 °F 30.1 in NE 8.9 mph 17.3 mph 63.4% 0 in
14:24 77.5 °F 63.9 °F 30.1 in NE 7.6 mph 17 mph 63% 0 in
14:29 77.7 °F 63.5 °F 30.1 in NE 7.6 mph 14 mph 61.6% 0 in
14:34 78.1 °F 63 °F 30.1 in NE 7.6 mph 14 mph 59.7% 0 in
14:39 78.3 °F 63 °F 30.1 in NE 7.3 mph 14 mph 59.5% 0 in
14:44 78.3 °F 62.8 °F 30.1 in ENE 6.2 mph 13 mph 58.9% 0 in
14:49 78.3 °F 62.2 °F 30.1 in NE 6.6 mph 13 mph 57.7% 0 in
14:54 78.4 °F 62.4 °F 30.1 in ENE 8.5 mph 15.2 mph 58.2% 0 in
14:59 78.4 °F 61.5 °F 30.1 in NE 8.2 mph 15 mph 56.4% 0 in
15:04 78.4 °F 62.1 °F 30.1 in NNE 7.4 mph 15 mph 57.5% 0 in
15:09 78.4 °F 62.4 °F 30.1 in NNE 7.6 mph 15.2 mph 58.1% 0 in
15:14 78.4 °F 62.1 °F 30.1 in NE 8.7 mph 15 mph 57.2% 0 in
15:19 78.3 °F 61.7 °F 30.1 in NE 8.6 mph 14 mph 56.7% 0 in
15:24 78.4 °F 61.9 °F 30.1 in NE 8.5 mph 14 mph 56.9% 0 in
15:29 78.6 °F 62.4 °F 30.1 in NE 8.5 mph 18.5 mph 57.6% 0 in
15:34 78.4 °F 63 °F 30.1 in NE 8.7 mph 19 mph 58.7% 0 in
15:39 78.4 °F 63.3 °F 30.1 in NE 8.8 mph 14 mph 59.7% 0 in
15:44 78.4 °F 63.1 °F 30.1 in NE 9.2 mph 18.4 mph 59.6% 0 in
15:49 78.3 °F 63.3 °F 30.1 in NE 9.3 mph 19.6 mph 60% 0 in
15:54 78.3 °F 63.3 °F 30.1 in NE 9.7 mph 20 mph 60% 0 in
15:59 78.4 °F 62.8 °F 30.1 in NE 9.4 mph 15.2 mph 58.7% 0 in
16:04 78.4 °F 63 °F 30.1 in NE 8.7 mph 15 mph 59.2% 0 in
16:09 78.4 °F 63.5 °F 30 in NE 8.6 mph 16.1 mph 60% 0 in
16:14 78.6 °F 63.7 °F 30 in NE 8.1 mph 18.1 mph 60.2% 0 in
16:19 78.3 °F 63.7 °F 30 in NE 8.2 mph 18.4 mph 60.7% 0 in
16:24 78.4 °F 63.1 °F 30 in NE 8.5 mph 16.1 mph 59.6% 0 in
16:29 78.4 °F 63.1 °F 30 in NE 8.3 mph 16.1 mph 59.6% 0 in
16:34 78.4 °F 63.3 °F 30 in ENE 7.6 mph 16 mph 60% 0 in
16:39 78.4 °F 63.9 °F 30 in NE 7.8 mph 19 mph 61% 0 in
16:44 78.1 °F 63.9 °F 30 in NE 8.5 mph 19 mph 61.6% 0 in
16:49 77.7 °F 63.5 °F 30 in NE 8.5 mph 18 mph 61.8% 0 in
16:54 77.7 °F 63.3 °F 30 in NE 8.7 mph 13 mph 61.1% 0 in
16:59 77.5 °F 63.5 °F 30 in NE 8.8 mph 14 mph 61.7% 0 in
17:04 77.7 °F 63.5 °F 30 in NE 9.2 mph 14 mph 61.7% 0 in
17:09 77.9 °F 63.5 °F 30 in NE 9.1 mph 15 mph 61.4% 0 in
17:14 77.5 °F 63.1 °F 30 in NE 8.5 mph 15.2 mph 61.1% 0 in
17:19 77.5 °F 63.3 °F 30 in NE 8.6 mph 16.1 mph 61.6% 0 in
17:24 77.4 °F 63.9 °F 30 in NE 9.2 mph 16 mph 63.1% 0 in
17:29 77.4 °F 64.2 °F 30 in ENE 8.6 mph 14 mph 64% 0 in
17:34 77.2 °F 64 °F 30 in NE 6.4 mph 14.5 mph 64% 0 in
17:39 76.8 °F 63.7 °F 30 in NE 6.8 mph 15 mph 64.3% 0 in
17:44 76.6 °F 64 °F 30 in ENE 8.5 mph 13 mph 65% 0 in
17:49 76.6 °F 64 °F 30 in ENE 8.1 mph 13 mph 65% 0 in
17:54 76.5 °F 64 °F 30 in ENE 6.9 mph 14.5 mph 65.6% 0 in
17:59 76.3 °F 64.2 °F 30 in ENE 6.9 mph 15 mph 66.2% 0 in
18:04 76.3 °F 64.4 °F 30 in NE 6.9 mph 13.5 mph 67% 0 in
18:09 75.9 °F 64.2 °F 30 in NE 6.8 mph 14 mph 67% 0 in
18:14 75.9 °F 64.6 °F 30 in ENE 6.4 mph 13 mph 67.7% 0 in
18:19 75.7 °F 64.6 °F 30 in NE 6.4 mph 13 mph 68% 0 in
18:24 75.7 °F 64.6 °F 30 in ENE 6.4 mph 12 mph 68.4% 0 in
18:29 75.6 °F 64.8 °F 30 in NE 6.4 mph 11.8 mph 69% 0 in
18:34 75.4 °F 64.6 °F 30 in ENE 6.2 mph 12 mph 69.1% 0 in
18:39 75.4 °F 64.9 °F 30 in ENE 6 mph 11 mph 70% 0 in
18:44 75.2 °F 64.8 °F 30 in NE 5.4 mph 9.2 mph 70% 0 in
18:49 75 °F 64.9 °F 30 in NE 5.3 mph 10.4 mph 70.6% 0 in
18:54 75 °F 64.9 °F 30 in NE 4.7 mph 11.5 mph 71% 0 in
18:59 74.8 °F 64.8 °F 30 in ENE 5.1 mph 12 mph 71% 0 in
19:04 74.7 °F 64.6 °F 30 in NE 6.4 mph 11 mph 71% 0 in
19:09 74.7 °F 64.9 °F 30 in NE 6 mph 9 mph 72% 0 in
19:14 74.7 °F 64.9 °F 30 in NE 4.3 mph 8.1 mph 72% 0 in
19:19 74.5 °F 64.9 °F 30 in NE 4.5 mph 9.7 mph 72.4% 0 in
19:24 74.1 °F 64.9 °F 30 in NE 5.4 mph 10 mph 73% 0 in
19:29 74.1 °F 64.9 °F 30 in NE 5.2 mph 9 mph 73% 0 in
19:34 73.9 °F 64.9 °F 30 in NE 4.3 mph 8.1 mph 73.3% 0 in
19:39 73.9 °F 65.1 °F 30 in NE 4.3 mph 8.5 mph 74% 0 in
19:44 73.8 °F 64.9 °F 30 in NE 4.7 mph 9 mph 74% 0 in
19:49 73.8 °F 65.3 °F 30 in NE 4.6 mph 7.4 mph 75% 0 in
19:54 73.6 °F 65.1 °F 30 in NE 4.3 mph 7 mph 75% 0 in
19:59 73.6 °F 65.1 °F 30 in NE 4.2 mph 8.1 mph 75% 0 in
20:04 73.4 °F 65.3 °F 30 in NE 4 mph 8 mph 75.8% 0 in
20:09 73.2 °F 65.3 °F 30 in NE 4 mph 6.2 mph 76% 0 in
20:14 73.2 °F 65.1 °F 30 in NE 4 mph 7.4 mph 76% 0 in
20:19 73 °F 65.3 °F 30 in NE 4 mph 7 mph 76.6% 0 in
20:24 72.9 °F 65.3 °F 30 in NE 4 mph 6 mph 77% 0 in
20:29 72.9 °F 65.3 °F 30 in NE 3.9 mph 6.9 mph 77.4% 0 in
20:34 72.7 °F 65.5 °F 30 in NE 3.6 mph 7 mph 78% 0 in
20:39 72.7 °F 65.3 °F 30 in NNE 3.5 mph 5.4 mph 78% 0 in
20:44 72.3 °F 65.3 °F 30 in NE 2.9 mph 6 mph 78.5% 0 in
20:49 72.3 °F 65.5 °F 30 in NNE 2.9 mph 6 mph 79% 0 in
20:54 72.3 °F 65.3 °F 30 in North 3.1 mph 5 mph 79% 0 in
20:59 72.1 °F 65.3 °F 30 in NE 3 mph 5 mph 79% 0 in
21:04 72.1 °F 65.5 °F 30 in NE 2.9 mph 5.8 mph 79.7% 0 in
21:09 72.1 °F 65.7 °F 30 in NE 3 mph 6 mph 80% 0 in
21:14 72 °F 65.5 °F 30 in NE 3.6 mph 6 mph 80% 0 in
21:19 72 °F 65.5 °F 30 in NE 3.6 mph 6.2 mph 80% 0 in
21:24 72 °F 65.5 °F 30 in NE 3.6 mph 6 mph 80% 0 in
21:29 72 °F 65.5 °F 30 in NE 3.5 mph 5 mph 80% 0 in
21:34 71.8 °F 65.5 °F 30 in NE 2.9 mph 5.2 mph 80.3% 0 in
21:39 71.8 °F 65.7 °F 30 in ENE 2.9 mph 5 mph 81% 0 in
21:44 71.8 °F 65.7 °F 30 in ENE 2.9 mph 5 mph 81% 0 in
21:49 71.8 °F 65.7 °F 30.1 in ENE 2.7 mph 3.5 mph 81% 0 in
21:54 71.8 °F 65.7 °F 30.1 in ENE 1.8 mph 2.4 mph 81% 0 in
21:59 71.8 °F 65.7 °F 30.1 in ENE 1.7 mph 3.1 mph 81% 0 in
22:04 71.8 °F 65.7 °F 30.1 in ENE 1.4 mph 3.6 mph 81% 0 in
22:09 71.8 °F 65.7 °F 30.1 in ENE 1.5 mph 4 mph 81% 0 in
22:14 71.8 °F 65.7 °F 30.1 in ENE 1.8 mph 3.6 mph 81% 0 in
22:19 71.6 °F 65.5 °F 30.1 in ENE 1.9 mph 4 mph 81% 0 in
22:24 71.4 °F 65.5 °F 30.1 in NE 2 mph 3 mph 81% 0 in
22:29 71.4 °F 65.3 °F 30.1 in North 2 mph 3 mph 81% 0 in
22:34 71.4 °F 65.5 °F 30.1 in North 1.8 mph 3.5 mph 81.4% 0 in
22:39 71.2 °F 65.5 °F 30.1 in North 1.5 mph 3 mph 82% 0 in
22:44 71.2 °F 65.5 °F 30.1 in Calm   2.4 mph 82% 0 in
22:49 71.2 °F 65.5 °F 30.1 in Calm   2.4 mph 82% 0 in
22:54 71.2 °F 65.5 °F 30.1 in Calm   2.4 mph 82% 0 in
22:59 71.2 °F 65.5 °F 30.1 in North 0.3 mph 2.4 mph 82% 0 in
23:04 71.2 °F 65.5 °F 30.1 in North 1.4 mph 2.4 mph 82% 0 in
23:09 71.2 °F 65.5 °F 30.1 in North 1.1 mph 2.9 mph 82% 0 in
23:14 71.2 °F 65.5 °F 30.1 in Calm   3 mph 82% 0 in
23:19 71.2 °F 65.5 °F 30.1 in Calm   3.1 mph 82% 0 in
23:24 71.1 °F 65.3 °F 30.1 in Calm   3.5 mph 82% 0 in
23:29 71.1 °F 65.3 °F 30.1 in North 0.4 mph 3.6 mph 82% 0 in
23:34 70.9 °F 65.1 °F 30.1 in North 1.8 mph 4.6 mph 82% 0 in
23:39 70.9 °F 65.3 °F 30.1 in NO 1.9 mph 5 mph 82.6% 0 in
23:44 70.7 °F 65.3 °F 30.1 in NO 2 mph 5 mph 83% 0 in
23:49 70.5 °F 65.1 °F 30.1 in NO 1.9 mph 4 mph 83% 0 in
23:54 70.3 °F 65.1 °F 30.1 in NO 1.4 mph 3 mph 83.5% 0 in
23:59 70.3 °F 65.3 °F 30.1 in NO 1.4 mph 2.9 mph 84% 0 in
Murcia-Puente Tocinos, España
Compliments of Weather Underground - 2.75 mb

La estación de MeteoMurcia.com, publica sus datos en los siguientes proyectos:

Weather Underground PWS IMURCIAP2 Meteoclimatic www.awekas.at

W3Counter
Web Analytics